createdAt,value
2022-07-25T00:00:11.325Z,9.98
2022-07-25T00:02:37.884Z,10.40
2022-07-25T00:05:05.207Z,10.02
2022-07-25T00:07:31.801Z,10.57
2022-07-25T00:10:00.868Z,10.30
2022-07-25T00:12:27.616Z,10.77
2022-07-25T00:14:54.169Z,10.07
2022-07-25T00:17:20.866Z,11.10
2022-07-25T00:19:47.398Z,11.02
2022-07-25T00:22:16.520Z,10.85
2022-07-25T00:24:43.143Z,10.80
2022-07-25T00:27:09.802Z,11.30
2022-07-25T00:29:37.127Z,11.30
2022-07-25T00:32:06.717Z,11.00
2022-07-25T00:34:33.733Z,11.52
2022-07-25T00:37:00.264Z,11.27
2022-07-25T00:39:26.967Z,11.13
2022-07-25T00:41:53.453Z,11.15
2022-07-25T00:44:24.667Z,11.23
2022-07-25T00:46:55.044Z,11.07
2022-07-25T00:49:25.912Z,11.98
2022-07-25T00:51:55.649Z,11.20
2022-07-25T00:54:22.923Z,10.70
2022-07-25T00:56:54.629Z,10.65
2022-07-25T00:59:23.022Z,11.63
2022-07-25T01:01:51.716Z,12.00
2022-07-25T01:04:18.263Z,10.95
2022-07-25T01:06:45.925Z,11.40
2022-07-25T01:09:14.894Z,11.98
2022-07-25T01:11:41.499Z,10.65
2022-07-25T01:14:11.117Z,11.52
2022-07-25T01:16:37.739Z,11.60
2022-07-25T01:19:07.300Z,11.25
2022-07-25T01:21:41.478Z,10.63
2022-07-25T01:24:09.902Z,11.10
2022-07-25T01:26:37.340Z,11.80
2022-07-25T01:29:05.405Z,11.85
2022-07-25T01:31:32.084Z,11.98
2022-07-25T01:34:01.047Z,11.52
2022-07-25T01:36:27.712Z,11.40
2022-07-25T01:38:54.429Z,11.30
2022-07-25T01:41:22.865Z,11.25
2022-07-25T01:43:49.620Z,11.90
2022-07-25T01:46:16.133Z,11.43
2022-07-25T01:48:42.944Z,12.00
2022-07-25T01:51:12.280Z,11.82
2022-07-25T01:53:39.220Z,10.68
2022-07-25T01:56:06.675Z,11.95
2022-07-25T01:58:35.498Z,11.80
2022-07-25T02:01:03.267Z,11.95
2022-07-25T02:03:32.639Z,11.70
2022-07-25T02:06:01.600Z,11.90
2022-07-25T02:08:29.509Z,11.63
2022-07-25T02:10:57.982Z,11.32
2022-07-25T02:13:25.443Z,11.50
2022-07-25T02:15:52.323Z,12.10
2022-07-25T02:18:20.019Z,11.95
2022-07-25T02:20:46.632Z,12.25
2022-07-25T02:23:13.128Z,12.10
2022-07-25T02:25:39.742Z,11.88
2022-07-25T02:28:10.674Z,11.70
2022-07-25T02:30:37.891Z,11.98
2022-07-25T02:33:04.516Z,12.15
2022-07-25T02:35:31.524Z,13.32
2022-07-25T02:37:58.054Z,13.70
2022-07-25T02:40:24.622Z,13.40
2022-07-25T02:42:54.057Z,13.13
2022-07-25T02:45:20.614Z,13.00
2022-07-25T02:47:47.109Z,12.75
2022-07-25T02:50:14.441Z,13.30
2022-07-25T02:52:41.646Z,12.98
2022-07-25T02:55:09.854Z,13.55
2022-07-25T02:57:36.658Z,13.77
2022-07-25T03:00:07.339Z,14.15
2022-07-25T03:02:35.741Z,13.25
2022-07-25T03:05:05.956Z,12.85
2022-07-25T03:07:35.108Z,14.05
2022-07-25T03:10:02.222Z,14.60
2022-07-25T03:12:35.590Z,12.93
2022-07-25T03:15:04.351Z,13.40
2022-07-25T03:17:31.584Z,14.13
2022-07-25T03:19:58.205Z,13.57
2022-07-25T03:22:25.408Z,13.82
2022-07-25T03:24:54.669Z,13.55
2022-07-25T03:27:21.305Z,14.15
2022-07-25T03:29:48.159Z,13.52
2022-07-25T03:32:14.800Z,14.88
2022-07-25T03:34:41.587Z,14.27
2022-07-25T03:37:08.060Z,13.63
2022-07-25T03:39:34.689Z,13.60
2022-07-25T03:42:01.205Z,14.43
2022-07-25T03:44:27.944Z,14.13
2022-07-25T03:46:54.459Z,13.20
2022-07-25T03:49:23.447Z,13.90
2022-07-25T03:51:52.716Z,13.15
2022-07-25T03:54:19.320Z,13.73
2022-07-25T03:56:48.454Z,14.88
2022-07-25T03:59:17.629Z,14.25
2022-07-25T04:01:45.690Z,13.40
2022-07-25T04:04:12.635Z,15.52
2022-07-25T04:06:40.402Z,14.85
2022-07-25T04:09:10.083Z,13.40
2022-07-25T04:11:38.392Z,13.52
2022-07-25T04:14:05.945Z,14.23
2022-07-25T04:16:32.736Z,13.30
2022-07-25T04:18:59.428Z,13.50
2022-07-25T04:21:27.743Z,14.50
2022-07-25T04:23:54.294Z,15.05
2022-07-25T04:26:20.876Z,15.02
2022-07-25T04:28:47.630Z,14.02
2022-07-25T04:31:17.168Z,14.57
2022-07-25T04:33:44.403Z,13.43
2022-07-25T04:36:10.930Z,15.20
2022-07-25T04:38:37.482Z,14.32
2022-07-25T04:41:05.200Z,15.18
2022-07-25T04:43:34.774Z,13.68
2022-07-25T04:46:01.973Z,14.10
2022-07-25T04:48:31.692Z,15.05
2022-07-25T04:50:58.322Z,15.07
2022-07-25T04:53:24.848Z,15.32
2022-07-25T04:55:51.454Z,15.43
2022-07-25T04:58:18.476Z,14.60
2022-07-25T05:00:45.283Z,13.90
2022-07-25T05:03:11.868Z,14.13
2022-07-25T05:05:38.425Z,12.57
2022-07-25T05:08:05.343Z,14.43
2022-07-25T05:10:32.067Z,13.75
2022-07-25T05:12:58.569Z,13.90
2022-07-25T05:15:25.175Z,13.40
2022-07-25T05:17:51.692Z,13.93
2022-07-25T05:20:18.629Z,14.02
2022-07-25T05:22:47.707Z,13.10
2022-07-25T05:25:14.259Z,13.68
2022-07-25T05:27:41.491Z,13.15
2022-07-25T05:30:09.913Z,12.93
2022-07-25T05:32:39.513Z,13.13
2022-07-25T05:35:08.143Z,12.80
2022-07-25T05:37:36.032Z,12.32
2022-07-25T05:40:03.325Z,12.55
2022-07-25T05:42:30.624Z,12.68
2022-07-25T05:44:57.119Z,12.68
2022-07-25T05:47:26.074Z,12.25
2022-07-25T05:49:52.589Z,11.90
2022-07-25T05:52:20.276Z,12.00
2022-07-25T05:54:52.834Z,12.38
2022-07-25T05:57:24.809Z,11.95
2022-07-25T05:59:51.346Z,11.40
2022-07-25T06:02:18.026Z,11.73
2022-07-25T06:04:45.098Z,11.80
2022-07-25T06:07:12.005Z,11.30
2022-07-25T06:09:43.480Z,10.98
2022-07-25T06:12:10.135Z,10.95
2022-07-25T06:14:38.448Z,11.25
2022-07-25T06:17:07.891Z,11.18
2022-07-25T06:19:34.495Z,10.80
2022-07-25T06:22:00.982Z,10.35
2022-07-25T06:24:27.491Z,11.25
2022-07-25T06:26:54.030Z,11.35
2022-07-25T06:29:20.556Z,10.70
2022-07-25T06:31:47.554Z,11.38
2022-07-25T06:34:14.213Z,10.38
2022-07-25T06:36:41.136Z,11.15
2022-07-25T06:39:07.757Z,10.68
2022-07-25T06:41:34.268Z,11.38
2022-07-25T06:44:00.848Z,10.73
2022-07-25T06:46:31.015Z,10.57
2022-07-25T06:48:57.770Z,10.77
2022-07-25T06:51:24.363Z,11.35
2022-07-25T06:53:51.191Z,10.80
2022-07-25T06:56:17.910Z,10.90
2022-07-25T06:58:44.716Z,10.32
2022-07-25T07:01:11.348Z,9.98
2022-07-25T07:03:38.761Z,10.30
2022-07-25T07:06:06.674Z,10.02
2022-07-25T07:08:33.826Z,10.20
2022-07-25T07:11:00.366Z,9.82
2022-07-25T07:13:29.412Z,10.43
2022-07-25T07:15:56.038Z,10.05
2022-07-25T07:18:23.377Z,9.70
2022-07-25T07:20:50.089Z,9.65
2022-07-25T07:23:18.021Z,9.55
2022-07-25T07:25:47.066Z,9.73
2022-07-25T07:28:14.591Z,9.30
2022-07-25T07:33:27.818Z,9.40
2022-07-25T07:35:56.833Z,10.00
2022-07-25T07:38:24.406Z,10.00
2022-07-25T07:40:50.948Z,10.13
2022-07-25T07:43:17.467Z,9.65
2022-07-25T07:45:46.562Z,10.00
2022-07-25T07:48:13.105Z,10.25
2022-07-25T07:50:40.194Z,10.25
2022-07-25T07:53:09.015Z,10.63
2022-07-25T07:55:44.247Z,10.48
2022-07-25T07:58:15.404Z,10.07
2022-07-25T08:00:44.165Z,10.02
2022-07-25T08:03:11.062Z,10.45
2022-07-25T08:05:43.051Z,10.18
2022-07-25T08:08:11.860Z,10.75
2022-07-25T08:10:40.567Z,10.45
2022-07-25T08:13:15.265Z,9.90
2022-07-25T08:15:43.139Z,9.48
2022-07-25T08:18:17.176Z,9.88
2022-07-25T08:20:49.031Z,10.50
2022-07-25T08:23:22.281Z,9.48
2022-07-25T08:25:49.274Z,10.10
2022-07-25T08:28:15.824Z,10.48
2022-07-25T08:30:42.889Z,9.88
2022-07-25T08:33:16.219Z,10.18
2022-07-25T08:35:53.044Z,10.10
2022-07-25T08:38:20.627Z,9.90
2022-07-25T08:40:47.657Z,9.25
2022-07-25T08:43:16.202Z,9.45
2022-07-25T08:45:48.377Z,9.55
2022-07-25T08:50:44.552Z,10.38
2022-07-25T08:53:32.187Z,9.43
2022-07-25T08:55:57.742Z,9.07
2022-07-25T08:58:24.299Z,9.35
2022-07-25T09:00:50.777Z,10.07
2022-07-25T09:03:19.927Z,9.60
2022-07-25T09:05:46.658Z,9.38
2022-07-25T09:08:19.483Z,9.13
2022-07-25T09:10:50.865Z,9.98
2022-07-25T09:13:19.010Z,9.85
2022-07-25T09:15:49.555Z,9.75
2022-07-25T09:18:19.204Z,9.10
2022-07-25T09:20:51.504Z,9.25
2022-07-25T09:23:35.207Z,9.02
2022-07-25T09:26:12.557Z,9.60
2022-07-25T09:28:46.177Z,9.05
2022-07-25T09:31:13.780Z,9.25
2022-07-25T09:33:54.191Z,8.85
2022-07-25T09:36:20.829Z,9.00
2022-07-25T09:39:01.924Z,8.70
2022-07-25T09:41:42.419Z,8.57
2022-07-25T09:44:29.741Z,7.82
2022-07-25T09:46:59.015Z,7.97
2022-07-25T09:49:26.704Z,8.15
2022-07-25T09:51:56.109Z,8.02
2022-07-25T09:54:25.354Z,7.95
2022-07-25T09:56:54.415Z,7.93
2022-07-25T09:59:20.973Z,7.72
2022-07-25T10:02:00.940Z,7.65
2022-07-25T10:04:51.747Z,7.93
2022-07-25T10:07:21.682Z,8.10
2022-07-25T10:09:55.131Z,7.57
2022-07-25T10:12:24.121Z,7.50
2022-07-25T10:15:23.209Z,7.00
2022-07-25T10:17:52.119Z,7.07
2022-07-25T10:20:28.255Z,7.65
2022-07-25T10:22:56.583Z,6.95
2022-07-25T10:25:23.819Z,7.15
2022-07-25T10:27:58.140Z,7.57
2022-07-25T10:30:27.444Z,7.80
2022-07-25T10:33:04.254Z,7.20
2022-07-25T10:35:31.336Z,6.75
2022-07-25T10:37:59.471Z,6.40
2022-07-25T10:40:27.518Z,6.00
2022-07-25T10:43:21.909Z,5.82
2022-07-25T10:45:52.818Z,5.78
2022-07-25T10:48:24.906Z,6.00
2022-07-25T10:50:59.365Z,5.68
2022-07-25T10:53:44.310Z,6.20
2022-07-25T10:56:21.826Z,5.78
2022-07-25T10:58:56.097Z,5.60
2022-07-25T11:01:31.650Z,5.88
2022-07-25T11:04:03.086Z,5.82
2022-07-25T11:06:33.531Z,5.70
2022-07-25T11:09:02.639Z,5.80
2022-07-25T11:11:41.085Z,6.28
2022-07-25T11:14:34.383Z,5.85
2022-07-25T11:17:30.539Z,5.60
2022-07-25T11:20:02.769Z,5.65
2022-07-25T11:24:57.868Z,5.25
2022-07-25T11:27:28.702Z,5.10
2022-07-25T11:30:09.544Z,4.88
2022-07-25T11:32:51.182Z,4.82
2022-07-25T11:35:21.917Z,5.10
2022-07-25T11:37:50.097Z,5.07
2022-07-25T11:40:17.255Z,5.20
2022-07-25T11:42:54.855Z,4.80
2022-07-25T11:45:26.601Z,5.15
2022-07-25T11:48:13.387Z,5.05
2022-07-25T11:50:44.789Z,4.93
2022-07-25T11:53:17.180Z,5.00
2022-07-25T11:55:44.018Z,4.90
2022-07-25T11:58:14.035Z,4.82
2022-07-25T12:00:45.839Z,4.60
2022-07-25T12:03:20.523Z,4.85
2022-07-25T12:05:51.644Z,5.03
2022-07-25T12:08:20.361Z,4.90
2022-07-25T12:10:48.489Z,5.07
2022-07-25T12:13:30.838Z,4.88
2022-07-25T12:15:58.708Z,4.97
2022-07-25T12:18:25.632Z,4.97
2022-07-25T12:20:53.241Z,4.80
2022-07-25T12:23:21.929Z,4.80
2022-07-25T12:25:51.181Z,5.32
2022-07-25T12:28:17.966Z,5.65
2022-07-25T12:30:45.841Z,5.47
2022-07-25T12:33:13.089Z,5.90
2022-07-25T12:35:43.780Z,5.68
2022-07-25T12:38:11.123Z,6.00
2022-07-25T12:40:38.014Z,5.60
2022-07-25T12:43:07.061Z,6.43
2022-07-25T12:45:33.753Z,5.80
2022-07-25T12:48:00.272Z,5.68
2022-07-25T12:50:26.914Z,6.03
2022-07-25T12:52:53.715Z,6.05
2022-07-25T12:55:20.796Z,5.88
2022-07-25T12:57:47.519Z,5.78
2022-07-25T13:00:17.531Z,5.70
2022-07-25T13:02:44.338Z,5.80
2022-07-25T13:05:11.574Z,6.38
2022-07-25T13:07:40.425Z,6.32
2022-07-25T13:10:07.666Z,5.70
2022-07-25T13:12:34.190Z,6.40
2022-07-25T13:15:01.595Z,5.97
2022-07-25T13:17:30.686Z,6.13
2022-07-25T13:19:57.210Z,5.88
2022-07-25T13:22:27.204Z,6.35
2022-07-25T13:24:54.389Z,6.10
2022-07-25T13:27:22.334Z,5.90
2022-07-25T13:29:54.118Z,6.00
2022-07-25T13:34:48.189Z,5.75
2022-07-25T13:37:15.065Z,5.43
2022-07-25T13:39:44.675Z,5.20
2022-07-25T13:42:11.184Z,5.13
2022-07-25T13:44:40.068Z,5.28
2022-07-25T13:47:06.982Z,5.22
2022-07-25T13:49:33.585Z,5.25
2022-07-25T13:52:00.323Z,4.72
2022-07-25T13:54:27.216Z,4.80
2022-07-25T13:56:53.787Z,4.68
2022-07-25T13:59:21.759Z,4.95
2022-07-25T14:01:49.103Z,5.18
2022-07-25T14:04:16.055Z,4.78
2022-07-25T14:06:43.253Z,4.78
2022-07-25T14:09:12.769Z,5.03
2022-07-25T14:11:39.340Z,5.05
2022-07-25T14:14:05.860Z,5.43
2022-07-25T14:16:34.106Z,5.40
2022-07-25T14:19:01.122Z,5.20
2022-07-25T14:21:33.038Z,5.60
2022-07-25T14:23:59.557Z,5.97
2022-07-25T14:26:28.172Z,5.75
2022-07-25T14:28:55.749Z,5.93
2022-07-25T14:31:24.904Z,5.80
2022-07-25T14:33:51.558Z,5.57
2022-07-25T14:36:18.149Z,5.55
2022-07-25T14:38:47.266Z,5.63
2022-07-25T14:41:14.366Z,5.82
2022-07-25T14:43:41.791Z,5.70
2022-07-25T14:46:09.041Z,5.70
2022-07-25T14:48:41.582Z,5.50
2022-07-25T14:51:08.163Z,5.43
2022-07-25T14:53:35.718Z,5.63
2022-07-25T14:56:04.792Z,5.88
2022-07-25T14:58:31.613Z,5.95
2022-07-25T15:00:58.173Z,5.93
2022-07-25T15:03:24.963Z,6.10
2022-07-25T15:05:51.639Z,5.90
2022-07-25T15:08:18.139Z,6.05
2022-07-25T15:10:44.697Z,6.22
2022-07-25T15:13:30.471Z,6.40
2022-07-25T15:15:58.192Z,6.43
2022-07-25T15:18:24.821Z,6.70
2022-07-25T15:20:51.989Z,6.57
2022-07-25T15:23:18.755Z,6.82
2022-07-25T15:26:03.892Z,6.97
2022-07-25T15:28:36.340Z,6.65
2022-07-25T15:31:03.785Z,6.47
2022-07-25T15:33:30.466Z,6.93
2022-07-25T15:35:57.613Z,6.85
2022-07-25T15:38:24.267Z,7.00
2022-07-25T15:40:50.969Z,6.80
2022-07-25T15:43:17.547Z,6.68
2022-07-25T15:45:45.925Z,6.63
2022-07-25T15:48:14.073Z,6.57
2022-07-25T15:50:44.518Z,6.70
2022-07-25T15:53:12.128Z,6.80
2022-07-25T15:55:40.561Z,6.70
2022-07-25T15:58:09.469Z,7.20
2022-07-25T16:00:36.698Z,7.00
2022-07-25T16:03:03.315Z,7.18
2022-07-25T16:05:31.115Z,7.05
2022-07-25T16:08:00.945Z,7.00
2022-07-25T16:10:31.784Z,7.10
2022-07-25T16:12:58.964Z,6.80
2022-07-25T16:15:26.473Z,6.93
2022-07-25T16:18:00.155Z,6.95
2022-07-25T16:20:29.083Z,7.03
2022-07-25T16:22:57.592Z,6.85
2022-07-25T16:25:24.346Z,7.13
2022-07-25T16:27:52.003Z,6.50
2022-07-25T16:30:19.065Z,6.40
2022-07-25T16:32:46.145Z,6.43
2022-07-25T16:35:12.998Z,6.60
2022-07-25T16:37:41.468Z,6.30
2022-07-25T16:40:09.188Z,6.07
2022-07-25T16:42:36.038Z,6.60
2022-07-25T16:45:02.808Z,6.00
2022-07-25T16:47:29.291Z,6.05
2022-07-25T16:49:58.476Z,6.00
2022-07-25T16:52:25.008Z,5.60
2022-07-25T16:54:53.983Z,5.72
2022-07-25T16:57:24.778Z,5.85
2022-07-25T16:59:55.657Z,5.70
2022-07-25T17:02:27.499Z,5.60
2022-07-25T17:04:56.047Z,5.93
2022-07-25T17:07:22.693Z,6.03
2022-07-25T17:09:49.186Z,6.03
2022-07-25T17:12:17.537Z,6.15
2022-07-25T17:14:44.990Z,5.68
2022-07-25T17:17:11.690Z,6.00
2022-07-25T17:19:39.932Z,6.50
2022-07-25T17:22:07.355Z,6.22
2022-07-25T17:24:33.978Z,6.30
2022-07-25T17:27:01.232Z,5.97
2022-07-25T17:29:27.964Z,6.13
2022-07-25T17:31:54.426Z,6.20
2022-07-25T17:34:24.406Z,6.20
2022-07-25T17:36:51.072Z,6.22
2022-07-25T17:39:17.673Z,6.43
2022-07-25T17:41:47.028Z,6.35
2022-07-25T17:44:13.904Z,6.50
2022-07-25T17:46:40.628Z,6.55
2022-07-25T17:49:07.257Z,6.82
2022-07-25T17:51:33.800Z,6.72
2022-07-25T17:54:02.365Z,6.85
2022-07-25T17:56:29.026Z,6.65
2022-07-25T17:58:57.499Z,7.00
2022-07-25T18:01:24.100Z,6.97
2022-07-25T18:03:51.086Z,6.93
2022-07-25T18:06:17.740Z,6.45
2022-07-25T18:08:44.291Z,7.10
2022-07-25T18:11:10.790Z,6.95
2022-07-25T18:13:37.839Z,7.15
2022-07-25T18:16:04.807Z,6.93
2022-07-25T18:18:32.986Z,6.40
2022-07-25T18:21:00.024Z,6.65
2022-07-25T18:23:28.601Z,6.72
2022-07-25T18:25:55.253Z,7.00
2022-07-25T18:28:22.353Z,7.15
2022-07-25T18:30:54.554Z,6.88
2022-07-25T18:33:22.068Z,7.15
2022-07-25T18:35:50.850Z,7.10
2022-07-25T18:38:17.560Z,6.53
2022-07-25T18:40:44.117Z,7.05
2022-07-25T18:43:11.705Z,6.90
2022-07-25T18:45:38.751Z,6.90
2022-07-25T18:48:06.957Z,6.85
2022-07-25T18:50:33.829Z,7.07
2022-07-25T18:53:00.400Z,7.20
2022-07-25T18:55:26.968Z,6.90
2022-07-25T18:57:53.705Z,6.90
2022-07-25T19:00:20.378Z,6.72
2022-07-25T19:02:49.266Z,6.95
2022-07-25T19:05:16.021Z,6.80
2022-07-25T19:07:42.861Z,6.80
2022-07-25T19:10:10.461Z,7.15
2022-07-25T19:12:37.355Z,6.90
2022-07-25T19:15:05.043Z,6.93
2022-07-25T19:17:32.873Z,6.95
2022-07-25T19:20:02.433Z,7.13
2022-07-25T19:22:28.928Z,7.53
2022-07-25T19:24:55.492Z,7.70
2022-07-25T19:27:25.797Z,7.60
2022-07-25T19:29:52.425Z,7.25
2022-07-25T19:32:18.924Z,7.95
2022-07-25T20:15:33.239Z,7.93
2022-07-25T20:17:59.928Z,8.02
2022-07-25T20:20:29.312Z,8.07
2022-07-25T20:22:56.539Z,8.00
2022-07-25T20:25:23.285Z,8.02
2022-07-25T20:27:52.657Z,8.13
2022-07-25T20:30:19.822Z,8.40
2022-07-25T20:32:46.369Z,8.60
2022-07-25T20:35:13.270Z,8.10
2022-07-25T20:37:39.885Z,10.98
2022-07-25T20:40:07.105Z,9.25
2022-07-25T20:42:36.176Z,10.07
2022-07-25T20:45:03.101Z,9.50
2022-07-25T20:47:29.601Z,9.40
2022-07-25T20:49:56.139Z,8.60
2022-07-25T20:52:22.761Z,10.00
2022-07-25T20:54:49.250Z,11.10
2022-07-25T20:57:15.742Z,10.18
2022-07-25T20:59:42.260Z,9.35
2022-07-25T21:02:08.946Z,9.52
2022-07-25T21:04:35.472Z,9.15
2022-07-25T21:07:01.981Z,9.27
2022-07-25T21:09:32.860Z,8.98
2022-07-25T21:12:01.414Z,9.02
2022-07-25T21:14:31.067Z,9.18
2022-07-25T21:16:57.717Z,10.32
2022-07-25T21:19:27.267Z,9.55
2022-07-25T21:21:53.819Z,9.50
2022-07-25T21:24:20.369Z,10.10
2022-07-25T21:26:46.929Z,9.57
2022-07-25T21:29:16.030Z,9.75
2022-07-25T21:31:44.546Z,9.02
2022-07-25T21:34:11.112Z,9.25
2022-07-25T21:36:37.696Z,9.93
2022-07-25T21:39:04.502Z,9.50
2022-07-25T21:41:31.185Z,10.50
2022-07-25T21:43:57.753Z,9.85
2022-07-25T21:46:24.568Z,10.57
2022-07-25T21:49:10.128Z,9.70
2022-07-25T21:51:41.001Z,10.07
2022-07-25T21:54:08.105Z,9.85
2022-07-25T21:56:36.699Z,10.98
2022-07-25T21:59:03.357Z,10.20
2022-07-25T22:01:30.029Z,11.35
2022-07-25T22:03:56.700Z,10.77
2022-07-25T22:06:23.228Z,10.45
2022-07-25T22:08:49.765Z,11.05
2022-07-25T22:11:38.464Z,11.50
2022-07-25T22:14:06.166Z,10.15
2022-07-25T22:16:32.711Z,9.88
2022-07-25T22:18:59.700Z,9.98
2022-07-25T22:21:26.764Z,9.57
2022-07-25T22:23:53.217Z,9.63
2022-07-25T22:26:20.286Z,9.20
2022-07-25T22:28:48.136Z,9.05
2022-07-25T22:31:16.220Z,9.70
2022-07-25T22:33:43.558Z,8.85
2022-07-25T22:36:10.473Z,9.55
2022-07-25T22:38:37.133Z,9.15
2022-07-25T22:41:03.668Z,9.07
2022-07-25T22:43:57.744Z,9.07
2022-07-25T22:46:16.743Z,9.85
2022-07-25T22:48:48.392Z,8.93
2022-07-25T22:51:16.755Z,9.13
2022-07-25T22:53:43.276Z,8.68
2022-07-25T22:56:12.558Z,9.40
2022-07-25T22:58:39.063Z,9.10
2022-07-25T23:01:05.660Z,9.38
2022-07-25T23:03:33.262Z,9.07
2022-07-25T23:06:00.040Z,8.95
2022-07-25T23:08:30.003Z,9.52
2022-07-25T23:10:56.511Z,9.88
2022-07-25T23:13:23.011Z,9.10
2022-07-25T23:15:51.441Z,9.43
2022-07-25T23:18:18.731Z,8.93
2022-07-25T23:20:45.322Z,8.95
2022-07-25T23:23:12.985Z,9.27
2022-07-25T23:25:39.692Z,9.00
2022-07-25T23:28:06.282Z,9.65
2022-07-25T23:30:38.077Z,9.60
2022-07-25T23:33:07.187Z,9.68
2022-07-25T23:35:33.873Z,9.90
2022-07-25T23:38:00.403Z,9.50
2022-07-25T23:40:27.105Z,10.10
2022-07-25T23:42:54.376Z,9.40
2022-07-25T23:45:21.701Z,10.20
2022-07-25T23:47:53.019Z,9.50
2022-07-25T23:50:19.594Z,9.50
2022-07-25T23:52:46.094Z,9.77
2022-07-25T23:55:12.723Z,9.25
2022-07-25T23:57:39.322Z,9.68
